sensor_id;sensor_type;location;lat;lon;timestamp;temperature;humidity
53053;DHT22;38934;52.690;6.184;2024-03-06T00:01:40;5.70;99.90
53053;DHT22;38934;52.690;6.184;2024-03-06T00:04:05;5.70;99.90
53053;DHT22;38934;52.690;6.184;2024-03-06T00:06:32;5.70;99.90
53053;DHT22;38934;52.690;6.184;2024-03-06T00:08:57;5.70;99.90
53053;DHT22;38934;52.690;6.184;2024-03-06T00:11:23;5.70;99.90
53053;DHT22;38934;52.690;6.184;2024-03-06T00:13:49;5.80;99.90
53053;DHT22;38934;52.690;6.184;2024-03-06T00:16:14;5.70;99.90
53053;DHT22;38934;52.690;6.184;2024-03-06T00:18:40;5.80;99.90
53053;DHT22;38934;52.690;6.184;2024-03-06T00:21:06;5.70;99.90
53053;DHT22;38934;52.690;6.184;2024-03-06T00:23:32;5.70;99.90
53053;DHT22;38934;52.690;6.184;2024-03-06T00:25:58;6.00;99.90
53053;DHT22;38934;52.690;6.184;2024-03-06T00:28:23;5.80;99.90
53053;DHT22;38934;52.690;6.184;2024-03-06T00:30:49;5.70;99.90
53053;DHT22;38934;52.690;6.184;2024-03-06T00:33:15;5.80;99.90
53053;DHT22;38934;52.690;6.184;2024-03-06T00:35:41;5.80;99.90
53053;DHT22;38934;52.690;6.184;2024-03-06T00:38:06;5.80;99.90
53053;DHT22;38934;52.690;6.184;2024-03-06T00:40:32;5.80;99.90
53053;DHT22;38934;52.690;6.184;2024-03-06T00:42:58;5.80;99.90
53053;DHT22;38934;52.690;6.184;2024-03-06T00:45:24;5.80;99.90
53053;DHT22;38934;52.690;6.184;2024-03-06T00:47:50;5.80;99.90
53053;DHT22;38934;52.690;6.184;2024-03-06T00:50:15;5.80;99.90
53053;DHT22;38934;52.690;6.184;2024-03-06T00:52:42;5.80;99.90
53053;DHT22;38934;52.690;6.184;2024-03-06T00:55:09;5.80;99.90
53053;DHT22;38934;52.690;6.184;2024-03-06T00:57:35;5.80;99.90
53053;DHT22;38934;52.690;6.184;2024-03-06T01:00:02;5.80;99.90
53053;DHT22;38934;52.690;6.184;2024-03-06T01:02:31;5.80;99.90
53053;DHT22;38934;52.690;6.184;2024-03-06T01:04:57;5.80;99.90
53053;DHT22;38934;52.690;6.184;2024-03-06T01:07:22;5.80;99.90
53053;DHT22;38934;52.690;6.184;2024-03-06T01:09:48;5.80;99.90
53053;DHT22;38934;52.690;6.184;2024-03-06T01:12:14;5.80;99.90
53053;DHT22;38934;52.690;6.184;2024-03-06T01:14:39;5.80;99.90
53053;DHT22;38934;52.690;6.184;2024-03-06T01:17:05;6.30;99.90
53053;DHT22;38934;52.690;6.184;2024-03-06T01:19:31;5.80;99.90
53053;DHT22;38934;52.690;6.184;2024-03-06T01:21:57;5.70;99.90
53053;DHT22;38934;52.690;6.184;2024-03-06T01:24:22;5.70;99.90
53053;DHT22;38934;52.690;6.184;2024-03-06T01:26:48;5.80;99.90
53053;DHT22;38934;52.690;6.184;2024-03-06T01:29:13;5.70;99.90
53053;DHT22;38934;52.690;6.184;2024-03-06T01:31:39;5.70;99.90
53053;DHT22;38934;52.690;6.184;2024-03-06T01:34:04;5.70;99.90
53053;DHT22;38934;52.690;6.184;2024-03-06T01:36:30;5.70;99.90
53053;DHT22;38934;52.690;6.184;2024-03-06T01:38:55;5.70;99.90
53053;DHT22;38934;52.690;6.184;2024-03-06T01:41:21;5.70;99.90
53053;DHT22;38934;52.690;6.184;2024-03-06T01:43:47;5.70;99.90
53053;DHT22;38934;52.690;6.184;2024-03-06T01:46:12;5.70;99.90
53053;DHT22;38934;52.690;6.184;2024-03-06T01:48:38;5.60;99.90
53053;DHT22;38934;52.690;6.184;2024-03-06T01:51:04;5.60;99.90
53053;DHT22;38934;52.690;6.184;2024-03-06T01:53:32;5.60;99.90
53053;DHT22;38934;52.690;6.184;2024-03-06T01:55:59;5.60;99.90
53053;DHT22;38934;52.690;6.184;2024-03-06T01:58:25;5.60;99.90
53053;DHT22;38934;52.690;6.184;2024-03-06T02:00:51;5.60;99.90
53053;DHT22;38934;52.690;6.184;2024-03-06T02:03:20;5.50;99.90
53053;DHT22;38934;52.690;6.184;2024-03-06T02:05:48;5.60;99.90
53053;DHT22;38934;52.690;6.184;2024-03-06T02:08:14;5.60;99.90
53053;DHT22;38934;52.690;6.184;2024-03-06T02:10:40;5.60;99.90
53053;DHT22;38934;52.690;6.184;2024-03-06T02:13:06;5.60;99.90
53053;DHT22;38934;52.690;6.184;2024-03-06T02:15:32;5.60;99.90
53053;DHT22;38934;52.690;6.184;2024-03-06T02:17:58;5.50;99.90
53053;DHT22;38934;52.690;6.184;2024-03-06T02:20:24;5.50;99.90
53053;DHT22;38934;52.690;6.184;2024-03-06T02:22:50;5.50;99.90
53053;DHT22;38934;52.690;6.184;2024-03-06T02:25:16;5.50;99.90
53053;DHT22;38934;52.690;6.184;2024-03-06T02:27:43;5.50;99.90
53053;DHT22;38934;52.690;6.184;2024-03-06T02:30:10;5.50;99.90
53053;DHT22;38934;52.690;6.184;2024-03-06T02:32:36;5.50;99.90
53053;DHT22;38934;52.690;6.184;2024-03-06T02:35:02;5.40;99.90
53053;DHT22;38934;52.690;6.184;2024-03-06T02:37:28;5.40;99.90
53053;DHT22;38934;52.690;6.184;2024-03-06T02:39:54;5.30;99.90
53053;DHT22;38934;52.690;6.184;2024-03-06T02:42:20;5.30;99.90
53053;DHT22;38934;52.690;6.184;2024-03-06T02:44:45;5.30;99.90
53053;DHT22;38934;52.690;6.184;2024-03-06T02:47:11;5.30;99.90
53053;DHT22;38934;52.690;6.184;2024-03-06T02:49:37;5.30;99.90
53053;DHT22;38934;52.690;6.184;2024-03-06T02:52:03;5.30;99.90
53053;DHT22;38934;52.690;6.184;2024-03-06T02:54:28;5.30;99.90
53053;DHT22;38934;52.690;6.184;2024-03-06T02:56:54;5.20;99.90
53053;DHT22;38934;52.690;6.184;2024-03-06T02:59:20;5.20;99.90
53053;DHT22;38934;52.690;6.184;2024-03-06T03:01:45;5.20;99.90
53053;DHT22;38934;52.690;6.184;2024-03-06T03:04:11;5.20;99.90
53053;DHT22;38934;52.690;6.184;2024-03-06T03:06:37;5.20;99.90
53053;DHT22;38934;52.690;6.184;2024-03-06T03:09:02;5.20;99.90
53053;DHT22;38934;52.690;6.184;2024-03-06T03:11:31;5.20;99.90
53053;DHT22;38934;52.690;6.184;2024-03-06T03:13:57;5.20;99.90
53053;DHT22;38934;52.690;6.184;2024-03-06T03:16:23;5.20;99.90
53053;DHT22;38934;52.690;6.184;2024-03-06T03:18:48;5.10;99.90
53053;DHT22;38934;52.690;6.184;2024-03-06T03:21:14;5.10;99.90
53053;DHT22;38934;52.690;6.184;2024-03-06T03:23:40;5.10;99.90
53053;DHT22;38934;52.690;6.184;2024-03-06T03:26:09;5.10;99.90
53053;DHT22;38934;52.690;6.184;2024-03-06T03:28:38;5.10;99.90
53053;DHT22;38934;52.690;6.184;2024-03-06T03:31:06;5.10;99.90
53053;DHT22;38934;52.690;6.184;2024-03-06T03:33:31;5.00;99.90
53053;DHT22;38934;52.690;6.184;2024-03-06T03:35:57;6.00;99.90
53053;DHT22;38934;52.690;6.184;2024-03-06T03:38:23;5.10;99.90
53053;DHT22;38934;52.690;6.184;2024-03-06T03:40:48;5.10;99.90
53053;DHT22;38934;52.690;6.184;2024-03-06T03:43:14;5.10;99.90
53053;DHT22;38934;52.690;6.184;2024-03-06T03:45:39;5.10;99.90
53053;DHT22;38934;52.690;6.184;2024-03-06T03:48:05;5.10;99.90
53053;DHT22;38934;52.690;6.184;2024-03-06T03:50:31;5.10;99.90
53053;DHT22;38934;52.690;6.184;2024-03-06T03:52:58;5.10;99.90
53053;DHT22;38934;52.690;6.184;2024-03-06T03:55:26;5.10;99.90
53053;DHT22;38934;52.690;6.184;2024-03-06T03:57:52;5.20;99.90
53053;DHT22;38934;52.690;6.184;2024-03-06T04:00:18;5.20;99.90
53053;DHT22;38934;52.690;6.184;2024-03-06T04:02:44;5.10;99.90
53053;DHT22;38934;52.690;6.184;2024-03-06T04:05:09;5.10;99.90
53053;DHT22;38934;52.690;6.184;2024-03-06T04:07:36;5.10;99.90
53053;DHT22;38934;52.690;6.184;2024-03-06T04:10:03;5.10;99.90
53053;DHT22;38934;52.690;6.184;2024-03-06T04:12:29;5.10;99.90
53053;DHT22;38934;52.690;6.184;2024-03-06T04:14:54;5.10;99.90
53053;DHT22;38934;52.690;6.184;2024-03-06T04:17:20;5.10;99.90
53053;DHT22;38934;52.690;6.184;2024-03-06T04:19:45;5.10;99.90
53053;DHT22;38934;52.690;6.184;2024-03-06T04:22:14;5.10;99.90
53053;DHT22;38934;52.690;6.184;2024-03-06T04:24:41;5.10;99.90
53053;DHT22;38934;52.690;6.184;2024-03-06T04:27:07;5.10;99.90
53053;DHT22;38934;52.690;6.184;2024-03-06T04:29:33;5.10;99.90
53053;DHT22;38934;52.690;6.184;2024-03-06T04:31:59;5.10;99.90
53053;DHT22;38934;52.690;6.184;2024-03-06T04:34:24;5.10;99.90
53053;DHT22;38934;52.690;6.184;2024-03-06T04:36:50;5.10;99.90
53053;DHT22;38934;52.690;6.184;2024-03-06T04:39:15;5.10;99.90
53053;DHT22;38934;52.690;6.184;2024-03-06T04:41:41;5.10;99.90
53053;DHT22;38934;52.690;6.184;2024-03-06T04:44:06;5.10;99.90
53053;DHT22;38934;52.690;6.184;2024-03-06T04:46:32;5.10;99.90
53053;DHT22;38934;52.690;6.184;2024-03-06T04:48:58;5.10;99.90
53053;DHT22;38934;52.690;6.184;2024-03-06T04:51:23;5.10;99.90
53053;DHT22;38934;52.690;6.184;2024-03-06T04:53:49;5.10;99.90
53053;DHT22;38934;52.690;6.184;2024-03-06T04:56:15;5.10;99.90
53053;DHT22;38934;52.690;6.184;2024-03-06T04:58:44;5.10;99.90
53053;DHT22;38934;52.690;6.184;2024-03-06T05:01:11;5.10;99.90
53053;DHT22;38934;52.690;6.184;2024-03-06T05:03:36;5.10;99.90
53053;DHT22;38934;52.690;6.184;2024-03-06T05:06:04;5.10;99.90
53053;DHT22;38934;52.690;6.184;2024-03-06T05:08:30;5.10;99.90
53053;DHT22;38934;52.690;6.184;2024-03-06T05:10:56;5.10;99.90
53053;DHT22;38934;52.690;6.184;2024-03-06T05:13:22;5.10;99.90
53053;DHT22;38934;52.690;6.184;2024-03-06T05:15:48;5.10;99.90
53053;DHT22;38934;52.690;6.184;2024-03-06T05:18:14;5.10;99.90
53053;DHT22;38934;52.690;6.184;2024-03-06T05:20:40;5.10;99.90
53053;DHT22;38934;52.690;6.184;2024-03-06T05:23:05;5.10;99.90
53053;DHT22;38934;52.690;6.184;2024-03-06T05:25:31;5.10;99.90
53053;DHT22;38934;52.690;6.184;2024-03-06T05:27:57;5.00;99.90
53053;DHT22;38934;52.690;6.184;2024-03-06T05:30:22;5.00;99.90
53053;DHT22;38934;52.690;6.184;2024-03-06T05:32:48;5.00;99.90
53053;DHT22;38934;52.690;6.184;2024-03-06T05:35:13;5.10;99.90
53053;DHT22;38934;52.690;6.184;2024-03-06T05:37:39;5.10;99.90
53053;DHT22;38934;52.690;6.184;2024-03-06T05:40:05;5.10;99.90
53053;DHT22;38934;52.690;6.184;2024-03-06T05:42:31;5.10;99.90
53053;DHT22;38934;52.690;6.184;2024-03-06T05:44:57;5.70;99.90
53053;DHT22;38934;52.690;6.184;2024-03-06T05:47:26;5.00;99.90
53053;DHT22;38934;52.690;6.184;2024-03-06T05:49:52;5.10;99.90
53053;DHT22;38934;52.690;6.184;2024-03-06T05:52:18;5.00;99.90
53053;DHT22;38934;52.690;6.184;2024-03-06T05:54:43;5.10;99.90
53053;DHT22;38934;52.690;6.184;2024-03-06T05:57:09;5.10;99.90
53053;DHT22;38934;52.690;6.184;2024-03-06T05:59:35;5.10;99.90
53053;DHT22;38934;52.690;6.184;2024-03-06T06:02:00;5.10;99.90
53053;DHT22;38934;52.690;6.184;2024-03-06T06:04:26;5.10;99.90
53053;DHT22;38934;52.690;6.184;2024-03-06T06:06:51;5.10;99.90
53053;DHT22;38934;52.690;6.184;2024-03-06T06:09:17;5.10;99.90
53053;DHT22;38934;52.690;6.184;2024-03-06T06:11:44;5.10;99.90
53053;DHT22;38934;52.690;6.184;2024-03-06T06:14:10;5.10;99.90
53053;DHT22;38934;52.690;6.184;2024-03-06T06:16:37;5.10;99.90
53053;DHT22;38934;52.690;6.184;2024-03-06T06:19:03;5.10;99.90
53053;DHT22;38934;52.690;6.184;2024-03-06T06:21:30;5.10;99.90
53053;DHT22;38934;52.690;6.184;2024-03-06T06:23:55;5.10;99.90
53053;DHT22;38934;52.690;6.184;2024-03-06T06:26:21;5.10;99.90
53053;DHT22;38934;52.690;6.184;2024-03-06T06:28:47;5.10;99.90
53053;DHT22;38934;52.690;6.184;2024-03-06T06:31:13;5.10;99.90
53053;DHT22;38934;52.690;6.184;2024-03-06T06:33:38;5.10;99.90
53053;DHT22;38934;52.690;6.184;2024-03-06T06:36:04;5.10;99.90
53053;DHT22;38934;52.690;6.184;2024-03-06T06:38:30;5.10;99.90
53053;DHT22;38934;52.690;6.184;2024-03-06T06:40:56;5.10;99.90
53053;DHT22;38934;52.690;6.184;2024-03-06T06:43:21;5.10;99.90
53053;DHT22;38934;52.690;6.184;2024-03-06T06:45:47;5.10;99.90
53053;DHT22;38934;52.690;6.184;2024-03-06T06:48:12;5.10;99.90
53053;DHT22;38934;52.690;6.184;2024-03-06T06:50:38;5.10;99.90
53053;DHT22;38934;52.690;6.184;2024-03-06T06:53:04;5.20;99.90
53053;DHT22;38934;52.690;6.184;2024-03-06T06:55:30;5.20;99.90
53053;DHT22;38934;52.690;6.184;2024-03-06T06:57:55;5.20;99.90
53053;DHT22;38934;52.690;6.184;2024-03-06T07:00:21;5.20;99.90
53053;DHT22;38934;52.690;6.184;2024-03-06T07:02:48;5.20;99.90
53053;DHT22;38934;52.690;6.184;2024-03-06T07:05:14;5.20;99.90
53053;DHT22;38934;52.690;6.184;2024-03-06T07:07:40;5.70;99.90
53053;DHT22;38934;52.690;6.184;2024-03-06T07:10:06;5.30;99.90
53053;DHT22;38934;52.690;6.184;2024-03-06T07:12:32;5.20;99.90
53053;DHT22;38934;52.690;6.184;2024-03-06T07:14:58;5.20;99.90
53053;DHT22;38934;52.690;6.184;2024-03-06T07:17:30;5.30;99.90
53053;DHT22;38934;52.690;6.184;2024-03-06T07:19:55;5.30;99.90
53053;DHT22;38934;52.690;6.184;2024-03-06T07:22:22;5.30;99.90
53053;DHT22;38934;52.690;6.184;2024-03-06T07:24:48;5.30;99.90
53053;DHT22;38934;52.690;6.184;2024-03-06T07:27:13;5.30;99.90
53053;DHT22;38934;52.690;6.184;2024-03-06T07:29:39;5.40;99.90
53053;DHT22;38934;52.690;6.184;2024-03-06T07:32:05;5.40;99.90
53053;DHT22;38934;52.690;6.184;2024-03-06T07:34:31;5.50;99.90
53053;DHT22;38934;52.690;6.184;2024-03-06T07:36:56;5.40;99.90
53053;DHT22;38934;52.690;6.184;2024-03-06T07:39:23;5.50;99.90
53053;DHT22;38934;52.690;6.184;2024-03-06T07:41:49;5.50;99.90
53053;DHT22;38934;52.690;6.184;2024-03-06T07:44:15;5.50;99.90
53053;DHT22;38934;52.690;6.184;2024-03-06T07:46:40;5.50;99.90
53053;DHT22;38934;52.690;6.184;2024-03-06T07:49:06;5.50;99.90
53053;DHT22;38934;52.690;6.184;2024-03-06T07:51:32;5.50;99.90
53053;DHT22;38934;52.690;6.184;2024-03-06T07:53:58;5.60;99.90
53053;DHT22;38934;52.690;6.184;2024-03-06T07:56:27;5.60;99.90
53053;DHT22;38934;52.690;6.184;2024-03-06T07:58:54;5.60;99.90
53053;DHT22;38934;52.690;6.184;2024-03-06T08:01:20;5.60;99.90
53053;DHT22;38934;52.690;6.184;2024-03-06T08:03:46;5.70;99.90
53053;DHT22;38934;52.690;6.184;2024-03-06T08:06:12;5.70;99.90
53053;DHT22;38934;52.690;6.184;2024-03-06T08:08:41;5.70;99.90
53053;DHT22;38934;52.690;6.184;2024-03-06T08:11:10;5.80;99.90
53053;DHT22;38934;52.690;6.184;2024-03-06T08:13:36;6.60;99.90
53053;DHT22;38934;52.690;6.184;2024-03-06T08:16:02;5.90;99.90
53053;DHT22;38934;52.690;6.184;2024-03-06T08:18:27;5.90;99.90
53053;DHT22;38934;52.690;6.184;2024-03-06T08:20:53;5.90;99.90
53053;DHT22;38934;52.690;6.184;2024-03-06T08:23:19;5.90;99.90
53053;DHT22;38934;52.690;6.184;2024-03-06T08:25:45;5.90;99.90
53053;DHT22;38934;52.690;6.184;2024-03-06T08:28:10;5.90;99.90
53053;DHT22;38934;52.690;6.184;2024-03-06T08:30:36;6.00;99.90
53053;DHT22;38934;52.690;6.184;2024-03-06T08:33:02;6.00;99.90
53053;DHT22;38934;52.690;6.184;2024-03-06T08:35:27;6.00;99.90
53053;DHT22;38934;52.690;6.184;2024-03-06T08:37:53;6.10;99.90
53053;DHT22;38934;52.690;6.184;2024-03-06T08:40:19;6.10;99.90
53053;DHT22;38934;52.690;6.184;2024-03-06T08:42:44;6.10;99.90
53053;DHT22;38934;52.690;6.184;2024-03-06T08:45:11;6.10;99.90
53053;DHT22;38934;52.690;6.184;2024-03-06T08:47:37;6.10;99.90
53053;DHT22;38934;52.690;6.184;2024-03-06T08:50:03;6.10;99.90
53053;DHT22;38934;52.690;6.184;2024-03-06T08:52:29;6.20;99.90
53053;DHT22;38934;52.690;6.184;2024-03-06T08:54:56;6.20;99.90
53053;DHT22;38934;52.690;6.184;2024-03-06T08:57:22;6.20;99.90
53053;DHT22;38934;52.690;6.184;2024-03-06T08:59:48;6.20;99.90
53053;DHT22;38934;52.690;6.184;2024-03-06T09:02:15;6.30;99.90
53053;DHT22;38934;52.690;6.184;2024-03-06T09:04:44;6.30;99.90
53053;DHT22;38934;52.690;6.184;2024-03-06T09:07:10;6.30;99.90
53053;DHT22;38934;52.690;6.184;2024-03-06T09:09:36;6.50;99.90
53053;DHT22;38934;52.690;6.184;2024-03-06T09:12:06;6.40;99.90
53053;DHT22;38934;52.690;6.184;2024-03-06T09:14:33;6.40;99.90
53053;DHT22;38934;52.690;6.184;2024-03-06T09:16:59;6.50;99.90
53053;DHT22;38934;52.690;6.184;2024-03-06T09:19:24;6.50;99.90
53053;DHT22;38934;52.690;6.184;2024-03-06T09:21:50;6.50;99.90
53053;DHT22;38934;52.690;6.184;2024-03-06T09:24:15;6.60;99.90
53053;DHT22;38934;52.690;6.184;2024-03-06T09:26:41;7.80;99.90
53053;DHT22;38934;52.690;6.184;2024-03-06T09:29:07;6.60;99.90
53053;DHT22;38934;52.690;6.184;2024-03-06T09:31:32;6.70;99.90
53053;DHT22;38934;52.690;6.184;2024-03-06T09:33:58;6.80;99.90
53053;DHT22;38934;52.690;6.184;2024-03-06T09:36:24;6.90;99.90
53053;DHT22;38934;52.690;6.184;2024-03-06T09:38:51;7.00;99.90
53053;DHT22;38934;52.690;6.184;2024-03-06T09:41:18;7.10;99.90
53053;DHT22;38934;52.690;6.184;2024-03-06T09:43:44;7.60;99.90
53053;DHT22;38934;52.690;6.184;2024-03-06T09:46:10;7.80;99.90
53053;DHT22;38934;52.690;6.184;2024-03-06T09:48:36;7.40;99.90
53053;DHT22;38934;52.690;6.184;2024-03-06T09:51:07;8.20;99.90
53053;DHT22;38934;52.690;6.184;2024-03-06T09:53:32;7.60;99.90
53053;DHT22;38934;52.690;6.184;2024-03-06T09:55:59;7.60;99.90
53053;DHT22;38934;52.690;6.184;2024-03-06T09:58:25;7.80;99.90
53053;DHT22;38934;52.690;6.184;2024-03-06T10:00:51;7.90;99.90
53053;DHT22;38934;52.690;6.184;2024-03-06T10:03:18;7.90;99.90
53053;DHT22;38934;52.690;6.184;2024-03-06T10:05:45;8.00;99.90
53053;DHT22;38934;52.690;6.184;2024-03-06T10:08:11;8.10;99.90
53053;DHT22;38934;52.690;6.184;2024-03-06T10:10:37;8.10;99.90
53053;DHT22;38934;52.690;6.184;2024-03-06T10:13:03;8.10;99.90
53053;DHT22;38934;52.690;6.184;2024-03-06T10:15:29;8.10;99.90
53053;DHT22;38934;52.690;6.184;2024-03-06T10:18:14;8.10;99.90
53053;DHT22;38934;52.690;6.184;2024-03-06T10:20:41;8.20;99.90
53053;DHT22;38934;52.690;6.184;2024-03-06T10:23:09;8.20;99.90
53053;DHT22;38934;52.690;6.184;2024-03-06T10:25:35;8.30;99.90
53053;DHT22;38934;52.690;6.184;2024-03-06T10:28:05;8.40;99.90
53053;DHT22;38934;52.690;6.184;2024-03-06T10:30:33;8.40;99.90
53053;DHT22;38934;52.690;6.184;2024-03-06T10:33:04;9.10;99.90
53053;DHT22;38934;52.690;6.184;2024-03-06T10:35:35;8.50;99.90
53053;DHT22;38934;52.690;6.184;2024-03-06T10:38:04;8.50;99.90
53053;DHT22;38934;52.690;6.184;2024-03-06T10:40:35;8.50;99.90
53053;DHT22;38934;52.690;6.184;2024-03-06T10:43:02;8.50;99.90
53053;DHT22;38934;52.690;6.184;2024-03-06T10:46:13;8.60;99.90
53053;DHT22;38934;52.690;6.184;2024-03-06T10:48:32;8.60;99.90
53053;DHT22;38934;52.690;6.184;2024-03-06T10:51:00;8.70;99.90
53053;DHT22;38934;52.690;6.184;2024-03-06T10:53:28;8.90;99.90
53053;DHT22;38934;52.690;6.184;2024-03-06T10:55:56;9.00;99.90
53053;DHT22;38934;52.690;6.184;2024-03-06T10:58:23;9.10;99.90
53053;DHT22;38934;52.690;6.184;2024-03-06T11:00:50;9.30;99.90
53053;DHT22;38934;52.690;6.184;2024-03-06T11:03:17;9.60;99.90
53053;DHT22;38934;52.690;6.184;2024-03-06T11:05:43;9.40;99.90
53053;DHT22;38934;52.690;6.184;2024-03-06T11:08:13;9.40;99.90
53053;DHT22;38934;52.690;6.184;2024-03-06T11:10:41;9.40;99.90
53053;DHT22;38934;52.690;6.184;2024-03-06T11:15:45;9.40;99.90
53053;DHT22;38934;52.690;6.184;2024-03-06T11:24:13;9.30;99.90
53053;DHT22;38934;52.690;6.184;2024-03-06T11:29:19;9.20;99.90
53053;DHT22;38934;52.690;6.184;2024-03-06T11:32:02;9.20;99.90
53053;DHT22;38934;52.690;6.184;2024-03-06T11:34:29;9.20;99.90
53053;DHT22;38934;52.690;6.184;2024-03-06T11:36:59;9.20;99.90
53053;DHT22;38934;52.690;6.184;2024-03-06T11:39:28;9.20;99.90
53053;DHT22;38934;52.690;6.184;2024-03-06T11:41:55;9.30;99.90
53053;DHT22;38934;52.690;6.184;2024-03-06T11:44:22;9.30;99.90
53053;DHT22;38934;52.690;6.184;2024-03-06T11:49:24;9.60;99.90
53053;DHT22;38934;52.690;6.184;2024-03-06T11:51:54;9.60;99.90
53053;DHT22;38934;52.690;6.184;2024-03-06T11:54:20;9.50;99.90
53053;DHT22;38934;52.690;6.184;2024-03-06T11:56:50;9.40;99.90
53053;DHT22;38934;52.690;6.184;2024-03-06T11:59:26;9.40;99.90
53053;DHT22;38934;52.690;6.184;2024-03-06T12:01:53;9.30;99.90
53053;DHT22;38934;52.690;6.184;2024-03-06T12:04:20;9.30;99.90
53053;DHT22;38934;52.690;6.184;2024-03-06T12:06:46;9.30;99.90
53053;DHT22;38934;52.690;6.184;2024-03-06T12:09:12;9.40;99.90
53053;DHT22;38934;52.690;6.184;2024-03-06T12:11:37;9.40;99.90
53053;DHT22;38934;52.690;6.184;2024-03-06T12:14:03;9.50;99.90
53053;DHT22;38934;52.690;6.184;2024-03-06T12:16:29;9.50;99.90
53053;DHT22;38934;52.690;6.184;2024-03-06T12:18:56;9.50;99.90
53053;DHT22;38934;52.690;6.184;2024-03-06T12:21:27;9.50;99.90
53053;DHT22;38934;52.690;6.184;2024-03-06T12:24:02;9.50;99.90
53053;DHT22;38934;52.690;6.184;2024-03-06T12:26:28;9.50;99.90
53053;DHT22;38934;52.690;6.184;2024-03-06T12:29:03;9.40;99.90
53053;DHT22;38934;52.690;6.184;2024-03-06T12:31:31;9.40;99.90
53053;DHT22;38934;52.690;6.184;2024-03-06T12:33:57;9.30;99.90
53053;DHT22;38934;52.690;6.184;2024-03-06T12:36:25;9.20;99.90
53053;DHT22;38934;52.690;6.184;2024-03-06T12:39:09;9.20;99.90
53053;DHT22;38934;52.690;6.184;2024-03-06T12:41:43;9.10;99.90
53053;DHT22;38934;52.690;6.184;2024-03-06T12:44:09;9.10;99.90
53053;DHT22;38934;52.690;6.184;2024-03-06T12:46:35;9.10;99.90
53053;DHT22;38934;52.690;6.184;2024-03-06T12:49:01;9.10;99.90
53053;DHT22;38934;52.690;6.184;2024-03-06T12:51:27;9.10;99.90
53053;DHT22;38934;52.690;6.184;2024-03-06T12:53:52;9.10;99.90
53053;DHT22;38934;52.690;6.184;2024-03-06T12:56:18;9.70;99.90
53053;DHT22;38934;52.690;6.184;2024-03-06T12:58:45;9.20;99.90
53053;DHT22;38934;52.690;6.184;2024-03-06T13:01:10;9.30;99.90
53053;DHT22;38934;52.690;6.184;2024-03-06T13:03:36;9.40;99.90
53053;DHT22;38934;52.690;6.184;2024-03-06T13:06:03;9.40;99.90
53053;DHT22;38934;52.690;6.184;2024-03-06T13:08:29;9.50;99.90
53053;DHT22;38934;52.690;6.184;2024-03-06T13:10:55;10.00;99.90
53053;DHT22;38934;52.690;6.184;2024-03-06T13:13:22;9.60;99.90
53053;DHT22;38934;52.690;6.184;2024-03-06T13:15:50;9.60;99.90
53053;DHT22;38934;52.690;6.184;2024-03-06T13:18:16;9.70;99.90
53053;DHT22;38934;52.690;6.184;2024-03-06T13:20:42;9.80;99.90
53053;DHT22;38934;52.690;6.184;2024-03-06T13:23:08;9.90;99.90
53053;DHT22;38934;52.690;6.184;2024-03-06T13:25:33;9.90;99.90
53053;DHT22;38934;52.690;6.184;2024-03-06T13:27:59;9.90;99.90
53053;DHT22;38934;52.690;6.184;2024-03-06T13:30:25;9.90;99.90
53053;DHT22;38934;52.690;6.184;2024-03-06T13:32:51;9.90;99.90
53053;DHT22;38934;52.690;6.184;2024-03-06T13:35:17;9.90;99.90
53053;DHT22;38934;52.690;6.184;2024-03-06T13:37:43;9.90;99.90
53053;DHT22;38934;52.690;6.184;2024-03-06T13:40:09;9.90;99.90
53053;DHT22;38934;52.690;6.184;2024-03-06T13:42:37;9.80;99.90
53053;DHT22;38934;52.690;6.184;2024-03-06T13:45:06;9.80;99.90
53053;DHT22;38934;52.690;6.184;2024-03-06T13:47:40;9.80;99.90
53053;DHT22;38934;52.690;6.184;2024-03-06T13:50:13;9.90;99.90
53053;DHT22;38934;52.690;6.184;2024-03-06T13:52:40;9.90;99.90
53053;DHT22;38934;52.690;6.184;2024-03-06T13:55:07;10.00;99.90
53053;DHT22;38934;52.690;6.184;2024-03-06T13:57:33;10.00;99.90
53053;DHT22;38934;52.690;6.184;2024-03-06T14:00:09;10.10;99.90
53053;DHT22;38934;52.690;6.184;2024-03-06T14:02:39;10.10;99.90
53053;DHT22;38934;52.690;6.184;2024-03-06T14:05:05;10.20;99.90
53053;DHT22;38934;52.690;6.184;2024-03-06T14:07:31;10.20;99.90
53053;DHT22;38934;52.690;6.184;2024-03-06T14:09:58;10.20;99.90
53053;DHT22;38934;52.690;6.184;2024-03-06T14:12:23;10.20;99.90
53053;DHT22;38934;52.690;6.184;2024-03-06T14:14:49;10.10;99.90
53053;DHT22;38934;52.690;6.184;2024-03-06T14:17:14;10.00;99.90
53053;DHT22;38934;52.690;6.184;2024-03-06T14:19:40;10.70;99.90
53053;DHT22;38934;52.690;6.184;2024-03-06T14:22:09;9.90;99.90
53053;DHT22;38934;52.690;6.184;2024-03-06T14:24:34;9.80;99.90
53053;DHT22;38934;52.690;6.184;2024-03-06T14:27:01;9.80;99.90
53053;DHT22;38934;52.690;6.184;2024-03-06T14:29:27;9.90;99.90
53053;DHT22;38934;52.690;6.184;2024-03-06T14:31:53;9.90;99.90
53053;DHT22;38934;52.690;6.184;2024-03-06T14:34:19;10.00;99.90
53053;DHT22;38934;52.690;6.184;2024-03-06T14:36:45;10.00;99.90
53053;DHT22;38934;52.690;6.184;2024-03-06T14:39:11;10.00;99.90
53053;DHT22;38934;52.690;6.184;2024-03-06T14:41:39;10.50;99.90
53053;DHT22;38934;52.690;6.184;2024-03-06T14:44:04;10.10;99.90
53053;DHT22;38934;52.690;6.184;2024-03-06T14:46:30;10.10;99.90
53053;DHT22;38934;52.690;6.184;2024-03-06T14:48:56;10.10;99.90
53053;DHT22;38934;52.690;6.184;2024-03-06T14:51:22;10.10;99.90
53053;DHT22;38934;52.690;6.184;2024-03-06T14:53:47;10.00;99.90
53053;DHT22;38934;52.690;6.184;2024-03-06T14:56:13;9.90;99.90
53053;DHT22;38934;52.690;6.184;2024-03-06T14:58:39;9.90;99.90
53053;DHT22;38934;52.690;6.184;2024-03-06T15:01:05;9.90;99.90
53053;DHT22;38934;52.690;6.184;2024-03-06T15:03:31;9.90;99.90
53053;DHT22;38934;52.690;6.184;2024-03-06T15:05:56;9.90;99.90
53053;DHT22;38934;52.690;6.184;2024-03-06T15:08:22;10.00;99.90
53053;DHT22;38934;52.690;6.184;2024-03-06T15:10:49;10.00;99.90
53053;DHT22;38934;52.690;6.184;2024-03-06T15:13:14;10.10;99.90
53053;DHT22;38934;52.690;6.184;2024-03-06T15:15:41;10.00;99.90
53053;DHT22;38934;52.690;6.184;2024-03-06T15:18:07;9.90;99.90
53053;DHT22;38934;52.690;6.184;2024-03-06T15:20:33;9.90;99.90
53053;DHT22;38934;52.690;6.184;2024-03-06T15:22:59;9.80;99.90
53053;DHT22;38934;52.690;6.184;2024-03-06T15:25:24;9.80;99.90
53053;DHT22;38934;52.690;6.184;2024-03-06T15:27:50;9.90;99.90
53053;DHT22;38934;52.690;6.184;2024-03-06T15:30:16;9.70;99.90
53053;DHT22;38934;52.690;6.184;2024-03-06T15:32:42;9.60;99.90
53053;DHT22;38934;52.690;6.184;2024-03-06T15:35:10;10.40;99.90
53053;DHT22;38934;52.690;6.184;2024-03-06T15:37:37;9.70;99.90
53053;DHT22;38934;52.690;6.184;2024-03-06T15:40:03;10.00;99.90
53053;DHT22;38934;52.690;6.184;2024-03-06T15:42:31;9.60;99.90
53053;DHT22;38934;52.690;6.184;2024-03-06T15:44:57;10.10;99.90
53053;DHT22;38934;52.690;6.184;2024-03-06T15:47:23;9.50;99.90
53053;DHT22;38934;52.690;6.184;2024-03-06T15:49:49;9.50;99.90
53053;DHT22;38934;52.690;6.184;2024-03-06T15:52:14;9.50;99.90
53053;DHT22;38934;52.690;6.184;2024-03-06T15:54:41;10.20;99.90